createdAt,value
2023-01-17T00:02:16.610Z,81.81
2023-01-17T00:05:02.768Z,81.34
2023-01-17T00:07:49.567Z,81.45
2023-01-17T00:10:22.073Z,81.95
2023-01-17T00:12:52.020Z,82.47
2023-01-17T00:15:23.794Z,82.57
2023-01-17T00:17:51.843Z,82.13
2023-01-17T00:20:45.492Z,82.14
2023-01-17T00:23:44.555Z,82.26
2023-01-17T00:26:18.973Z,83.12
2023-01-17T00:29:06.643Z,83.65
2023-01-17T00:31:53.047Z,83.81
2023-01-17T00:34:39.075Z,84.35
2023-01-17T00:37:25.040Z,84.71
2023-01-17T00:40:11.586Z,85.11
2023-01-17T00:42:57.834Z,85.44
2023-01-17T00:45:43.892Z,85.52
2023-01-17T00:48:31.712Z,86.17
2023-01-17T00:51:17.725Z,86.23
2023-01-17T00:54:04.006Z,87.08
2023-01-17T00:56:50.302Z,87.07
2023-01-17T00:59:36.391Z,87.37
2023-01-17T01:02:22.519Z,87.86
2023-01-17T01:05:08.769Z,87.95
2023-01-17T01:07:55.153Z,88.10
2023-01-17T01:10:41.236Z,88.28
2023-01-17T01:13:27.408Z,88.14
2023-01-17T01:16:13.695Z,88.29
2023-01-17T01:19:00.354Z,88.80
2023-01-17T01:21:46.467Z,88.60
2023-01-17T01:24:32.534Z,88.76
2023-01-17T01:27:18.711Z,89.13
2023-01-17T01:30:04.688Z,88.81
2023-01-17T01:32:56.952Z,89.07
2023-01-17T01:35:26.476Z,88.99
2023-01-17T01:37:53.992Z,88.93
2023-01-17T01:40:22.564Z,89.09
2023-01-17T01:42:54.533Z,89.40
2023-01-17T01:45:24.681Z,89.10
2023-01-17T01:48:22.337Z,89.02
2023-01-17T01:50:50.125Z,89.06
2023-01-17T01:53:18.288Z,89.16
2023-01-17T01:55:45.956Z,89.45
2023-01-17T01:58:23.989Z,90.01
2023-01-17T02:00:51.616Z,90.09
2023-01-17T02:03:25.083Z,90.32
2023-01-17T02:05:52.712Z,91.26
2023-01-17T02:08:21.426Z,91.10
2023-01-17T02:10:49.244Z,91.14
2023-01-17T02:13:17.957Z,91.39
2023-01-17T02:15:45.421Z,92.26
2023-01-17T02:18:34.836Z,92.47
2023-01-17T02:21:26.694Z,93.01
2023-01-17T02:24:24.678Z,93.48
2023-01-17T02:27:00.610Z,92.77
2023-01-17T02:29:37.295Z,92.99
2023-01-17T02:32:14.978Z,92.91
2023-01-17T02:35:14.308Z,93.43
2023-01-17T02:38:00.405Z,93.56
2023-01-17T02:40:35.248Z,93.55
2023-01-17T02:43:05.728Z,93.33
2023-01-17T02:45:33.897Z,93.42
2023-01-17T02:48:01.501Z,94.35
2023-01-17T02:50:39.781Z,94.37
2023-01-17T02:53:30.021Z,94.23
2023-01-17T02:56:03.228Z,93.70
2023-01-17T02:58:50.641Z,94.00
2023-01-17T03:01:47.716Z,94.53
2023-01-17T03:04:18.690Z,95.01
2023-01-17T03:06:54.869Z,94.50
2023-01-17T03:09:22.491Z,94.43
2023-01-17T03:11:52.457Z,93.92
2023-01-17T03:14:20.070Z,94.82
2023-01-17T03:16:47.673Z,94.87
2023-01-17T03:19:16.270Z,94.40
2023-01-17T03:21:44.817Z,94.30
2023-01-17T03:24:12.593Z,94.35
2023-01-17T03:26:40.186Z,94.49
2023-01-17T03:29:07.765Z,94.07
2023-01-17T03:31:35.837Z,94.25
2023-01-17T03:34:03.409Z,94.23
2023-01-17T03:36:31.033Z,93.91
2023-01-17T03:38:58.620Z,94.13
2023-01-17T03:41:26.223Z,94.28
2023-01-17T03:43:54.055Z,94.55
2023-01-17T03:46:23.407Z,94.80
2023-01-17T03:48:51.038Z,94.41
2023-01-17T03:51:19.297Z,94.34
2023-01-17T03:53:47.116Z,94.06
2023-01-17T03:56:14.767Z,94.00
2023-01-17T03:58:42.518Z,94.14
2023-01-17T04:01:10.576Z,93.68
2023-01-17T04:03:56.396Z,94.23
2023-01-17T04:06:24.224Z,94.50
2023-01-17T04:08:52.115Z,94.26
2023-01-17T04:11:19.937Z,94.37
2023-01-17T04:13:49.659Z,94.35
2023-01-17T04:16:17.532Z,95.04
2023-01-17T04:18:45.108Z,94.89
2023-01-17T04:21:13.096Z,94.11
2023-01-17T04:23:41.119Z,94.16
2023-01-17T04:26:09.671Z,93.78
2023-01-17T04:28:37.509Z,94.00
2023-01-17T04:31:05.246Z,94.38
2023-01-17T04:33:33.549Z,94.55
2023-01-17T04:36:01.140Z,94.91
2023-01-17T04:38:28.799Z,94.73
2023-01-17T04:40:56.393Z,94.74
2023-01-17T04:43:24.024Z,94.75
2023-01-17T04:45:56.535Z,94.95
2023-01-17T04:48:24.703Z,94.69
2023-01-17T04:50:52.239Z,94.36
2023-01-17T04:53:19.803Z,94.38
2023-01-17T04:55:47.371Z,94.31
2023-01-17T04:58:14.950Z,94.03
2023-01-17T05:00:42.513Z,93.61
2023-01-17T05:03:10.584Z,93.82
2023-01-17T05:05:38.120Z,93.34
2023-01-17T05:08:06.043Z,93.21
2023-01-17T05:10:34.910Z,93.25
2023-01-17T05:13:03.253Z,92.66
2023-01-17T05:15:30.881Z,92.70
2023-01-17T05:17:58.654Z,92.37
2023-01-17T05:20:26.668Z,92.12
2023-01-17T05:22:55.651Z,91.98
2023-01-17T05:25:28.133Z,91.70
2023-01-17T05:27:55.887Z,91.85
2023-01-17T05:30:23.732Z,91.16
2023-01-17T05:32:52.169Z,91.21
2023-01-17T05:35:21.070Z,91.53
2023-01-17T05:37:51.884Z,91.36
2023-01-17T05:40:21.197Z,91.42
2023-01-17T05:42:55.011Z,91.32
2023-01-17T05:45:23.469Z,90.82
2023-01-17T05:47:52.117Z,90.26
2023-01-17T05:50:25.925Z,90.06
2023-01-17T05:52:55.903Z,90.03
2023-01-17T05:55:23.958Z,89.72
2023-01-17T05:57:51.671Z,88.98
2023-01-17T06:00:19.942Z,89.08
2023-01-17T06:02:47.853Z,88.96
2023-01-17T06:05:17.792Z,88.86
2023-01-17T06:07:46.180Z,88.36
2023-01-17T06:10:14.690Z,87.92
2023-01-17T06:12:43.344Z,87.88
2023-01-17T06:15:14.196Z,87.47
2023-01-17T06:17:42.353Z,87.40
2023-01-17T06:20:11.018Z,87.49
2023-01-17T06:22:38.745Z,87.17
2023-01-17T06:25:07.159Z,86.81
2023-01-17T06:27:35.165Z,86.95
2023-01-17T06:30:03.972Z,86.64
2023-01-17T06:32:31.860Z,86.56
2023-01-17T06:34:59.364Z,86.45
2023-01-17T06:37:26.948Z,86.24
2023-01-17T06:39:54.614Z,86.35
2023-01-17T06:42:22.425Z,85.96
2023-01-17T06:44:49.936Z,85.58
2023-01-17T06:47:17.496Z,85.58
2023-01-17T06:49:44.990Z,85.69
2023-01-17T06:52:12.529Z,85.86
2023-01-17T06:54:40.322Z,85.67
2023-01-17T06:57:07.848Z,85.07
2023-01-17T06:59:35.452Z,85.40
2023-01-17T07:02:03.031Z,85.57
2023-01-17T07:04:30.812Z,85.54
2023-01-17T07:06:58.320Z,85.38
2023-01-17T07:09:25.861Z,85.22
2023-01-17T07:11:59.728Z,85.58
2023-01-17T07:14:27.588Z,85.28
2023-01-17T07:16:55.787Z,85.59
2023-01-17T07:19:24.153Z,86.07
2023-01-17T07:21:52.738Z,85.62
2023-01-17T07:24:20.635Z,86.76
2023-01-17T07:26:49.273Z,86.23
2023-01-17T07:29:17.024Z,86.90
2023-01-17T07:31:44.756Z,87.52
2023-01-17T07:34:12.489Z,87.85
2023-01-17T07:36:40.001Z,87.03
2023-01-17T07:39:10.683Z,86.63
2023-01-17T07:41:41.512Z,86.57
2023-01-17T07:44:12.192Z,86.68
2023-01-17T07:46:40.356Z,86.98
2023-01-17T07:49:08.265Z,87.08
2023-01-17T07:51:35.979Z,86.96
2023-01-17T07:54:03.774Z,87.12
2023-01-17T07:56:31.562Z,86.99
2023-01-17T07:58:59.148Z,86.64
2023-01-17T08:01:27.475Z,87.25
2023-01-17T08:04:10.043Z,87.55
2023-01-17T08:06:38.113Z,87.36
2023-01-17T08:09:07.049Z,87.74
2023-01-17T08:11:35.159Z,88.18
2023-01-17T08:14:02.758Z,87.96
2023-01-17T08:16:32.985Z,88.45
2023-01-17T08:19:00.734Z,88.29
2023-01-17T08:21:28.793Z,88.51
2023-01-17T08:23:56.687Z,88.02
2023-01-17T08:26:25.069Z,87.84
2023-01-17T08:28:57.097Z,87.72
2023-01-17T08:31:24.946Z,88.68
2023-01-17T08:33:52.789Z,88.32
2023-01-17T08:36:20.815Z,88.08
2023-01-17T08:38:53.031Z,88.29
2023-01-17T08:41:21.526Z,88.36
2023-01-17T08:43:49.608Z,88.27
2023-01-17T08:46:17.525Z,88.09
2023-01-17T08:48:45.235Z,87.88
2023-01-17T08:51:13.020Z,87.68
2023-01-17T08:53:40.873Z,87.58
2023-01-17T08:56:09.380Z,87.41
2023-01-17T08:58:37.042Z,87.02
2023-01-17T09:01:05.717Z,85.92
2023-01-17T09:03:34.069Z,86.70
2023-01-17T09:06:09.027Z,86.96
2023-01-17T09:08:41.755Z,86.51
2023-01-17T09:11:13.814Z,86.72
2023-01-17T09:13:41.462Z,86.84
2023-01-17T09:16:09.499Z,86.47
2023-01-17T09:18:40.789Z,85.82
2023-01-17T09:21:16.077Z,86.32
2023-01-17T09:23:43.884Z,86.69
2023-01-17T09:26:22.427Z,86.24
2023-01-17T09:28:50.192Z,85.84
2023-01-17T09:31:18.523Z,86.05
2023-01-17T09:33:46.693Z,86.69
2023-01-17T09:36:14.345Z,85.80
2023-01-17T09:38:41.964Z,85.67
2023-01-17T09:41:23.705Z,86.47
2023-01-17T09:43:52.616Z,87.20
2023-01-17T09:46:24.030Z,87.42
2023-01-17T09:48:57.249Z,87.09
2023-01-17T09:51:26.371Z,87.45
2023-01-17T09:53:53.924Z,87.33
2023-01-17T09:56:29.775Z,87.83
2023-01-17T09:59:08.714Z,87.79
2023-01-17T10:01:42.372Z,86.95
2023-01-17T10:04:34.831Z,86.36
2023-01-17T10:07:13.638Z,86.26
2023-01-17T10:09:53.847Z,87.13
2023-01-17T10:12:44.906Z,86.37
2023-01-17T10:15:39.287Z,86.73
2023-01-17T10:18:30.522Z,87.30
2023-01-17T10:21:01.683Z,87.54
2023-01-17T10:24:06.663Z,88.65
2023-01-17T10:26:34.444Z,88.31
2023-01-17T10:29:04.116Z,88.21
2023-01-17T10:31:39.402Z,89.33
2023-01-17T10:34:13.857Z,89.98
2023-01-17T10:36:47.010Z,89.24
2023-01-17T10:39:22.222Z,89.09
2023-01-17T10:42:00.966Z,90.17
2023-01-17T10:44:35.978Z,89.67
2023-01-17T10:47:15.025Z,89.74
2023-01-17T10:49:47.416Z,90.09
2023-01-17T10:52:24.702Z,90.10
2023-01-17T10:54:52.357Z,88.98
2023-01-17T10:57:24.443Z,89.93
2023-01-17T10:59:52.541Z,90.45
2023-01-17T11:02:30.428Z,89.70
2023-01-17T11:04:58.466Z,90.11
2023-01-17T11:07:27.447Z,89.33
2023-01-17T11:09:58.865Z,89.50
2023-01-17T11:12:46.440Z,88.84
2023-01-17T11:15:13.932Z,89.60
2023-01-17T11:18:00.341Z,89.90
2023-01-17T11:20:38.144Z,90.32
2023-01-17T11:23:06.438Z,89.92
2023-01-17T11:25:34.559Z,89.61
2023-01-17T11:28:40.501Z,88.50
2023-01-17T11:31:24.067Z,88.70
2023-01-17T11:34:18.783Z,88.44
2023-01-17T11:36:50.234Z,88.54
2023-01-17T11:39:18.319Z,88.77
2023-01-17T11:41:47.910Z,90.20
2023-01-17T11:44:31.022Z,90.01
2023-01-17T11:47:09.943Z,89.60
2023-01-17T11:49:38.356Z,89.20
2023-01-17T11:52:10.202Z,89.02
2023-01-17T11:54:42.832Z,88.96
2023-01-17T11:57:32.042Z,89.21
2023-01-17T12:00:09.176Z,89.69
2023-01-17T12:02:52.357Z,90.30
2023-01-17T12:05:33.792Z,89.81
2023-01-17T12:08:30.615Z,90.16
2023-01-17T12:11:16.889Z,91.37
2023-01-17T12:14:02.803Z,91.06
2023-01-17T12:16:52.332Z,90.68
2023-01-17T12:19:27.254Z,91.50
2023-01-17T12:22:13.763Z,91.80
2023-01-17T12:24:50.643Z,92.85
2023-01-17T12:27:43.487Z,92.05
2023-01-17T12:30:25.582Z,91.44
2023-01-17T12:33:09.563Z,92.36
2023-01-17T12:35:38.950Z,92.04
2023-01-17T12:38:14.044Z,91.74
2023-01-17T12:40:52.083Z,92.80
2023-01-17T12:43:33.621Z,91.31
2023-01-17T12:46:03.325Z,91.58
2023-01-17T12:48:34.806Z,91.14
2023-01-17T12:51:09.162Z,91.88
2023-01-17T12:54:13.402Z,91.66
2023-01-17T12:57:03.868Z,91.57
2023-01-17T12:59:50.159Z,90.73
2023-01-17T13:02:23.209Z,90.46
2023-01-17T13:04:58.856Z,91.52
2023-01-17T13:08:15.315Z,91.34
2023-01-17T13:10:59.797Z,92.76
2023-01-17T13:13:29.015Z,93.25
2023-01-17T13:16:07.537Z,93.55
2023-01-17T13:18:35.510Z,93.50
2023-01-17T13:21:27.499Z,93.98
2023-01-17T13:23:59.285Z,94.20
2023-01-17T13:26:53.484Z,94.64
2023-01-17T13:29:39.569Z,95.19
2023-01-17T13:32:40.396Z,94.76
2023-01-17T13:35:42.999Z,95.68
2023-01-17T13:38:34.761Z,96.08
2023-01-17T13:41:10.896Z,96.26
2023-01-17T13:43:40.885Z,95.50
2023-01-17T13:46:08.694Z,95.89
2023-01-17T13:48:41.105Z,96.46
2023-01-17T13:51:09.730Z,95.99
2023-01-17T13:53:40.217Z,96.18
2023-01-17T13:56:20.170Z,97.06
2023-01-17T13:58:52.007Z,96.97
2023-01-17T14:01:22.826Z,97.11
2023-01-17T14:03:50.529Z,96.32
2023-01-17T14:06:37.160Z,96.90
2023-01-17T14:09:29.936Z,96.27
2023-01-17T14:12:05.586Z,96.80
2023-01-17T14:14:45.635Z,95.93
2023-01-17T14:17:17.651Z,96.89
2023-01-17T14:19:48.481Z,96.81
2023-01-17T14:22:19.222Z,97.17
2023-01-17T14:25:09.952Z,96.88
2023-01-17T14:27:58.552Z,96.76
2023-01-17T14:30:28.579Z,97.08
2023-01-17T14:32:59.130Z,97.18
2023-01-17T14:35:40.907Z,97.09
2023-01-17T14:38:22.855Z,97.08
2023-01-17T14:40:56.311Z,97.96
2023-01-17T14:43:27.576Z,98.31
2023-01-17T14:46:02.413Z,99.40
2023-01-17T14:48:30.329Z,98.68
2023-01-17T14:51:00.523Z,98.27
2023-01-17T14:53:31.822Z,99.22
2023-01-17T14:56:12.384Z,99.68
2023-01-17T14:58:41.376Z,100.00
2023-01-17T15:01:16.371Z,99.61
2023-01-17T15:03:51.068Z,99.40
2023-01-17T15:06:20.968Z,99.90
2023-01-17T15:08:49.149Z,99.30
2023-01-17T15:11:26.998Z,99.81
2023-01-17T15:13:57.632Z,99.50
2023-01-17T15:16:30.286Z,99.69
2023-01-17T15:18:57.969Z,99.84
2023-01-17T15:21:28.440Z,99.33
2023-01-17T15:24:01.584Z,99.39
2023-01-17T15:26:32.010Z,99.16
2023-01-17T15:29:05.578Z,99.27
2023-01-17T15:31:43.724Z,99.33
2023-01-17T15:34:38.209Z,99.62
2023-01-17T15:37:24.606Z,99.75
2023-01-17T15:39:52.344Z,100.00
2023-01-17T15:42:23.192Z,100.00
2023-01-17T15:44:55.548Z,100.00
2023-01-17T15:47:40.974Z,100.00
2023-01-17T15:50:30.676Z,100.00
2023-01-17T15:53:05.350Z,100.00
2023-01-17T15:55:37.216Z,100.00
2023-01-17T15:58:05.872Z,100.00
2023-01-17T16:00:38.489Z,100.00
2023-01-17T16:03:31.886Z,100.00
2023-01-17T16:06:00.879Z,100.00
2023-01-17T16:08:40.616Z,100.00
2023-01-17T16:11:08.715Z,100.00
2023-01-17T16:13:42.436Z,100.00
2023-01-17T16:16:13.250Z,100.00
2023-01-17T16:18:44.378Z,100.00
2023-01-17T16:21:21.428Z,100.00
2023-01-17T16:23:49.459Z,100.00
2023-01-17T16:26:17.148Z,100.00
2023-01-17T16:28:45.931Z,100.00
2023-01-17T16:31:13.738Z,100.00
2023-01-17T16:33:42.557Z,100.00
2023-01-17T16:36:13.141Z,100.00
2023-01-17T16:38:41.403Z,100.00
2023-01-17T16:41:09.132Z,100.00
2023-01-17T16:43:37.186Z,100.00
2023-01-17T16:46:05.024Z,100.00
2023-01-17T16:48:33.853Z,100.00
2023-01-17T16:51:02.288Z,100.00
2023-01-17T16:53:30.150Z,100.00
2023-01-17T16:55:59.665Z,100.00
2023-01-17T16:58:28.503Z,100.00
2023-01-17T17:00:56.788Z,100.00
2023-01-17T17:03:25.249Z,100.00
2023-01-17T17:05:59.147Z,100.00
2023-01-17T17:08:29.253Z,100.00
2023-01-17T17:11:15.426Z,100.00
2023-01-17T17:13:44.795Z,100.00
2023-01-17T17:16:17.758Z,100.00
2023-01-17T17:18:46.171Z,100.00
2023-01-17T17:21:14.137Z,100.00
2023-01-17T17:23:43.335Z,100.00
2023-01-17T17:26:11.443Z,100.00
2023-01-17T17:28:39.106Z,100.00
2023-01-17T17:31:10.548Z,100.00
2023-01-17T17:33:41.751Z,100.00
2023-01-17T17:36:12.742Z,100.00
2023-01-17T17:38:58.276Z,100.00
2023-01-17T17:41:27.624Z,100.00
2023-01-17T17:43:55.334Z,100.00
2023-01-17T17:46:24.051Z,100.00
2023-01-17T17:48:52.055Z,100.00
2023-01-17T17:51:27.980Z,100.00
2023-01-17T17:53:56.355Z,100.00
2023-01-17T17:56:24.042Z,100.00
2023-01-17T17:58:51.881Z,100.00
2023-01-17T18:01:22.877Z,100.00
2023-01-17T18:03:52.137Z,100.00
2023-01-17T18:06:20.133Z,100.00
2023-01-17T18:08:48.736Z,100.00
2023-01-17T18:11:22.773Z,100.00
2023-01-17T18:13:51.268Z,100.00
2023-01-17T18:16:24.239Z,100.00
2023-01-17T18:18:53.699Z,100.00
2023-01-17T18:21:25.489Z,100.00
2023-01-17T18:24:00.634Z,100.00
2023-01-17T18:26:39.064Z,100.00
2023-01-17T18:29:07.607Z,100.00
2023-01-17T18:31:35.833Z,100.00
2023-01-17T18:34:05.797Z,100.00
2023-01-17T18:36:34.976Z,100.00
2023-01-17T18:39:05.183Z,100.00
2023-01-17T18:41:33.390Z,100.00
2023-01-17T18:44:04.189Z,99.38
2023-01-17T18:46:32.132Z,99.60
2023-01-17T18:48:59.875Z,99.34
2023-01-17T18:51:29.010Z,99.62
2023-01-17T18:53:58.152Z,99.74
2023-01-17T18:56:30.763Z,99.91
2023-01-17T18:58:58.489Z,99.74
2023-01-17T19:01:29.114Z,100.00
2023-01-17T19:03:58.123Z,100.00
2023-01-17T19:06:33.438Z,100.00
2023-01-17T19:09:01.759Z,100.00
2023-01-17T19:11:29.680Z,100.00
2023-01-17T19:13:57.529Z,100.00
2023-01-17T19:16:30.340Z,100.00
2023-01-17T22:27:41.850Z,100.00
2023-01-17T22:30:13.171Z,100.00
2023-01-17T22:32:41.088Z,100.00
2023-01-17T22:35:09.618Z,100.00
2023-01-17T22:37:37.647Z,100.00
2023-01-17T22:40:06.155Z,100.00
2023-01-17T22:42:34.646Z,100.00
2023-01-17T22:45:05.092Z,100.00
2023-01-17T22:47:34.419Z,100.00
2023-01-17T22:50:02.351Z,100.00
2023-01-17T22:52:30.454Z,100.00
2023-01-17T22:54:58.364Z,100.00
2023-01-17T22:57:26.065Z,100.00
2023-01-17T22:59:53.981Z,100.00
2023-01-17T23:02:21.906Z,100.00
2023-01-17T23:04:49.738Z,100.00
2023-01-17T23:07:18.245Z,100.00
2023-01-17T23:09:46.117Z,100.00
2023-01-17T23:12:13.809Z,100.00
2023-01-17T23:15:01.872Z,100.00
2023-01-17T23:17:48.011Z,100.00
2023-01-17T23:20:15.758Z,100.00
2023-01-17T23:22:43.347Z,100.00
2023-01-17T23:25:13.466Z,100.00
2023-01-17T23:28:03.397Z,100.00
2023-01-17T23:30:34.680Z,100.00
2023-01-17T23:33:03.260Z,100.00
2023-01-17T23:35:32.663Z,100.00
2023-01-17T23:38:18.870Z,100.00
2023-01-17T23:41:06.757Z,100.00
2023-01-17T23:43:34.947Z,100.00
2023-01-17T23:46:02.788Z,100.00
2023-01-17T23:48:31.390Z,100.00
2023-01-17T23:51:30.639Z,100.00
2023-01-17T23:54:05.547Z,100.00
2023-01-17T23:56:33.769Z,100.00
2023-01-17T23:59:01.550Z,100.00
